Benet Lake, Wisconsin
Current Conditions -  °F | °C
As of 6:53 AM on Tuesday 21 Oct 2014 (Local Time) from KENW Reporting Station
Scattered Clouds Scattered Clouds  
Wind Chill: 40°   Ceiling: Unl
Heat Index: 44°   Visibility: 10mi
Dew Point: 39°   Wind: 7mph
Humidity: 82%   Direction: 350°N
Pressure: 30.11"   Gusts: NA
Location:  42.54°N, 88.02°W
Report Text: KENW 211153Z AUTO 35006KT 10SM SCT048 07/04 A3011 RMK AO2 SLP201 T00670039 10100 20067 53023
Loading
Personal Weather Stations






























Interactive Weather Map
Tropical Storm Tracking
New forecast layout! Learn more

10-Day Weather Forecast

Advertisements
Track Severe Weather on mobile